Time;durP1;ratioP1;P1;durP2;ratioP2;P2;SDS_P1;SDS_P2;PMS_P1;PMS_P2;Temp;Humidity;BMP_temperature;BMP_pressure;BME280_temperature;BME280_humidity;BME280_pressure;Samples;Min_cycle;Max_cycle;Signal;HPM_P1;HPM_P2
2023/07/31 00:00:13;;;;;;;7.17;6.53;;;23.20;99.90;;;;;;5085183;28;20220;-76
2023/07/31 00:02:39;;;;;;;8.40;7.20;;;23.20;99.90;;;;;;5085976;28;20323;-82
2023/07/31 00:05:05;;;;;;;7.17;6.57;;;23.20;99.90;;;;;;5084828;28;20968;-76
2023/07/31 00:07:32;;;;;;;6.60;6.00;;;23.20;99.90;;;;;;5084517;28;20422;-81
2023/07/31 00:09:58;;;;;;;7.00;6.37;;;23.20;99.90;;;;;;5084341;28;20437;-77
2023/07/31 00:12:23;;;;;;;6.67;6.00;;;23.20;99.90;;;;;;5085351;28;20470;-77
2023/07/31 00:14:49;;;;;;;7.03;6.33;;;23.20;99.90;;;;;;5085030;28;20561;-82
2023/07/31 00:17:17;;;;;;;8.13;7.43;;;23.20;99.90;;;;;;5086165;28;20174;-78
2023/07/31 00:19:43;;;;;;;8.27;7.47;;;23.10;99.90;;;;;;5083719;28;20612;-79
2023/07/31 00:22:09;;;;;;;8.17;7.37;;;23.10;99.90;;;;;;5084429;28;20401;-81
2023/07/31 00:24:34;;;;;;;8.03;7.23;;;23.10;99.90;;;;;;5083770;28;20281;-82
2023/07/31 00:27:00;;;;;;;8.40;7.30;;;23.10;99.90;;;;;;5085461;28;20405;-80
2023/07/31 00:29:26;;;;;;;8.20;7.47;;;23.10;99.90;;;;;;5085469;28;20204;-82
2023/07/31 00:31:52;;;;;;;7.17;6.47;;;23.10;99.90;;;;;;5083968;28;20567;-82
2023/07/31 00:34:17;;;;;;;8.47;7.37;;;23.00;99.90;;;;;;5083550;28;20445;-76
2023/07/31 00:36:43;;;;;;;8.10;7.20;;;23.00;99.90;;;;;;5084291;28;20461;-81
2023/07/31 00:39:08;;;;;;;9.27;8.37;;;23.00;99.90;;;;;;5084257;28;20196;-82
2023/07/31 00:41:34;;;;;;;8.33;7.63;;;23.00;99.90;;;;;;5085248;28;20549;-80
2023/07/31 00:44:00;;;;;;;9.10;8.20;;;23.00;99.90;;;;;;5083545;28;20205;-76
2023/07/31 00:46:25;;;;;;;8.60;7.63;;;22.90;99.90;;;;;;5085541;28;20207;-81
2023/07/31 00:48:51;;;;;;;8.50;7.70;;;22.90;99.90;;;;;;5083784;28;20191;-81
2023/07/31 00:51:17;;;;;;;8.90;8.10;;;22.90;99.90;;;;;;5083436;28;20196;-78
2023/07/31 00:53:43;;;;;;;9.23;8.17;;;22.90;99.90;;;;;;5083815;28;20184;-82
2023/07/31 00:56:11;;;;;;;8.93;7.53;;;22.90;99.90;;;;;;5083817;28;20196;-83
2023/07/31 00:58:36;;;;;;;9.57;8.60;;;22.90;99.90;;;;;;5084129;28;20446;-80
2023/07/31 01:01:02;;;;;;;9.53;8.03;;;22.90;99.90;;;;;;5083337;28;20511;-76
2023/07/31 01:03:28;;;;;;;8.60;7.90;;;22.80;99.90;;;;;;5083750;28;20542;-82
2023/07/31 01:06:09;;;;;;;9.93;8.93;;;22.80;99.90;;;;;;5084874;28;20223;-82
2023/07/31 01:09:02;;;;;;;9.63;8.43;;;22.80;99.90;;;;;;5084277;28;20210;-82
2023/07/31 01:11:42;;;;;;;10.00;8.27;;;22.70;99.90;;;;;;5083440;28;20416;-82
2023/07/31 01:14:08;;;;;;;9.33;8.27;;;22.70;99.90;;;;;;5087655;28;20468;-82
2023/07/31 01:16:34;;;;;;;10.90;9.90;;;22.70;99.90;;;;;;5087437;28;21023;-76
2023/07/31 01:19:00;;;;;;;9.33;8.40;;;22.60;99.90;;;;;;5087137;28;20215;-82
2023/07/31 01:21:34;;;;;;;10.43;9.33;;;22.60;99.90;;;;;;5087125;28;20181;-81
2023/07/31 01:24:23;;;;;;;9.83;8.83;;;22.60;99.90;;;;;;5088081;28;20419;-76
2023/07/31 01:27:23;;;;;;;9.17;8.17;;;22.60;99.90;;;;;;5087253;28;20412;-76
2023/07/31 01:30:25;;;;;;;9.93;8.53;;;22.50;99.90;;;;;;5079304;28;20471;-76
2023/07/31 01:32:54;;;;;;;15.73;9.47;;;22.50;99.90;;;;;;5048282;28;20743;-76
2023/07/31 01:35:20;;;;;;;9.27;8.27;;;22.40;99.90;;;;;;5083863;28;20491;-82
2023/07/31 01:37:46;;;;;;;8.10;7.30;;;22.40;99.90;;;;;;5088517;28;20436;-75
2023/07/31 01:40:12;;;;;;;9.20;8.30;;;22.40;99.90;;;;;;5086591;28;20539;-76
2023/07/31 01:42:37;;;;;;;9.47;8.57;;;22.40;99.90;;;;;;5086955;28;20852;-80
2023/07/31 01:45:03;;;;;;;9.67;8.67;;;22.30;99.90;;;;;;5086314;28;20747;-77
2023/07/31 01:47:29;;;;;;;9.30;8.37;;;22.30;99.90;;;;;;5088445;28;20236;-82
2023/07/31 01:49:55;;;;;;;9.60;8.67;;;22.30;99.90;;;;;;5086534;28;20455;-82
2023/07/31 01:52:21;;;;;;;8.60;7.80;;;22.30;99.90;;;;;;5086790;28;20180;-82
2023/07/31 01:54:46;;;;;;;9.30;8.40;;;22.30;99.90;;;;;;5086361;28;20213;-83
2023/07/31 01:57:12;;;;;;;8.97;8.07;;;22.20;99.90;;;;;;5088512;28;20168;-80
2023/07/31 01:59:37;;;;;;;9.10;7.87;;;22.20;99.90;;;;;;5086283;28;20726;-77
2023/07/31 02:02:03;;;;;;;8.10;7.30;;;22.10;99.90;;;;;;5086579;28;20379;-82
2023/07/31 02:04:29;;;;;;;10.67;8.90;;;22.10;99.90;;;;;;5086687;28;20626;-81
2023/07/31 02:06:55;;;;;;;7.27;6.57;;;22.10;99.90;;;;;;5087746;28;20633;-82
2023/07/31 02:09:21;;;;;;;11.40;8.40;;;22.10;99.90;;;;;;5086245;28;20654;-75
2023/07/31 02:11:46;;;;;;;9.70;8.40;;;22.10;99.90;;;;;;5087483;28;20808;-75
2023/07/31 02:14:12;;;;;;;9.47;8.47;;;22.10;99.90;;;;;;5085096;28;20518;-75
2023/07/31 02:16:38;;;;;;;8.83;8.00;;;22.10;99.90;;;;;;5085413;28;20255;-82
2023/07/31 02:19:04;;;;;;;9.00;8.10;;;22.10;99.90;;;;;;5087005;28;20679;-75
2023/07/31 02:21:29;;;;;;;11.17;7.80;;;22.10;99.90;;;;;;5087600;28;20430;-78
2023/07/31 02:23:55;;;;;;;8.83;7.83;;;22.10;99.90;;;;;;5085558;28;20334;-75
2023/07/31 02:26:21;;;;;;;8.13;7.33;;;22.10;99.90;;;;;;5087512;28;20180;-75
2023/07/31 02:28:47;;;;;;;11.80;8.47;;;22.00;99.90;;;;;;5086221;28;20634;-81
2023/07/31 02:31:13;;;;;;;11.97;8.47;;;22.00;99.90;;;;;;5085662;28;20801;-82
2023/07/31 02:33:38;;;;;;;8.47;7.50;;;22.00;99.90;;;;;;5085890;28;20441;-81
2023/07/31 02:36:04;;;;;;;11.17;8.03;;;22.00;99.90;;;;;;5086830;28;20200;-83
2023/07/31 02:38:30;;;;;;;9.27;7.97;;;22.00;99.90;;;;;;5085842;28;20634;-75
2023/07/31 02:40:55;;;;;;;11.07;8.40;;;22.00;99.90;;;;;;5085397;28;20273;-75
2023/07/31 02:43:21;;;;;;;8.40;7.57;;;22.00;99.90;;;;;;5087368;28;20176;-79
2023/07/31 02:45:51;;;;;;;9.00;8.10;;;22.00;99.90;;;;;;5085304;28;20684;-75
2023/07/31 02:48:17;;;;;;;9.10;8.20;;;22.00;99.90;;;;;;5087543;28;20682;-83
2023/07/31 02:50:43;;;;;;;9.40;8.33;;;22.00;99.90;;;;;;5085400;28;20515;-76
2023/07/31 02:53:09;;;;;;;8.60;7.80;;;21.90;99.90;;;;;;5086885;28;20491;-76
2023/07/31 02:55:35;;;;;;;9.20;8.00;;;22.00;99.90;;;;;;5085177;28;20188;-81
2023/07/31 02:58:00;;;;;;;8.87;7.97;;;22.00;99.90;;;;;;5086936;28;20172;-76
2023/07/31 03:00:26;;;;;;;8.97;8.20;;;22.10;99.90;;;;;;5086564;28;20223;-82
2023/07/31 03:02:52;;;;;;;9.50;8.50;;;22.20;99.90;;;;;;5085492;28;20259;-82
2023/07/31 03:05:18;;;;;;;9.67;8.70;;;22.20;99.90;;;;;;5084946;28;20572;-76
2023/07/31 03:07:44;;;;;;;11.70;7.77;;;22.30;99.90;;;;;;5085328;28;20441;-74
2023/07/31 03:10:10;;;;;;;8.87;7.83;;;22.30;99.90;;;;;;5086454;28;20499;-83
2023/07/31 03:12:35;;;;;;;9.17;8.13;;;22.30;99.90;;;;;;5084976;28;20200;-81
2023/07/31 03:15:02;;;;;;;10.13;8.50;;;22.40;99.90;;;;;;5084075;28;20268;-76
2023/07/31 03:17:27;;;;;;;10.10;8.97;;;22.40;99.90;;;;;;5087057;28;20190;-82
2023/07/31 03:19:53;;;;;;;9.67;8.70;;;22.40;99.90;;;;;;5084430;28;20763;-82
2023/07/31 03:22:19;;;;;;;9.93;8.73;;;22.40;99.90;;;;;;5084223;28;20195;-82
2023/07/31 03:24:44;;;;;;;8.90;8.10;;;22.50;99.90;;;;;;5084248;28;20220;-82
2023/07/31 03:27:10;;;;;;;11.43;8.23;;;22.50;99.90;;;;;;5086529;28;20671;-76
2023/07/31 03:29:35;;;;;;;8.70;7.70;;;22.50;99.90;;;;;;5084496;28;20192;-76
2023/07/31 03:32:01;;;;;;;10.40;9.40;;;22.50;99.90;;;;;;5086385;28;20462;-76
2023/07/31 03:34:27;;;;;;;9.43;8.53;;;22.50;99.90;;;;;;5084286;28;20231;-75
2023/07/31 03:36:53;;;;;;;9.30;8.20;;;22.50;99.90;;;;;;5086079;28;20486;-82
2023/07/31 03:39:18;;;;;;;11.73;9.07;;;22.50;99.90;;;;;;5084427;28;20377;-82
2023/07/31 03:41:44;;;;;;;8.70;7.70;;;22.50;99.90;;;;;;5085863;28;20177;-81
2023/07/31 03:44:10;;;;;;;12.67;8.80;;;22.50;99.90;;;;;;5085429;28;20542;-82
2023/07/31 03:46:36;;;;;;;9.00;8.10;;;22.50;99.90;;;;;;5086140;28;20172;-76
2023/07/31 03:49:02;;;;;;;8.73;7.93;;;22.50;99.90;;;;;;5085365;28;20277;-75
2023/07/31 03:51:28;;;;;;;32.77;23.90;;;22.50;99.90;;;;;;5085792;28;20505;-82
2023/07/31 03:53:53;;;;;;;13.80;11.57;;;22.50;99.90;;;;;;5083980;28;20672;-82
2023/07/31 03:56:19;;;;;;;8.90;8.03;;;22.50;99.90;;;;;;5084457;28;20565;-77
2023/07/31 03:58:45;;;;;;;8.80;7.90;;;22.50;99.90;;;;;;5084405;28;20280;-76
2023/07/31 04:01:11;;;;;;;8.63;7.83;;;22.50;99.90;;;;;;5083345;28;20199;-76
2023/07/31 04:03:37;;;;;;;7.90;7.17;;;22.60;99.90;;;;;;5085512;28;20421;-82
2023/07/31 04:06:03;;;;;;;10.00;8.47;;;22.60;99.90;;;;;;5085169;28;20307;-76
2023/07/31 04:08:29;;;;;;;7.77;6.97;;;22.60;99.90;;;;;;5084128;28;20203;-82
2023/07/31 04:10:55;;;;;;;8.10;7.20;;;22.60;99.90;;;;;;5085203;28;20432;-82
2023/07/31 04:13:22;;;;;;;9.30;7.90;;;22.70;99.90;;;;;;5084035;28;20259;-82
2023/07/31 04:15:50;;;;;;;7.77;7.07;;;22.70;99.90;;;;;;5083540;28;20814;-79
2023/07/31 04:18:16;;;;;;;9.47;8.00;;;22.70;99.90;;;;;;5084235;28;20409;-83
2023/07/31 04:20:42;;;;;;;7.97;7.27;;;22.70;99.90;;;;;;5084191;28;20421;-76
2023/07/31 04:23:07;;;;;;;9.80;8.27;;;22.70;99.90;;;;;;5083810;28;20221;-83
2023/07/31 04:25:34;;;;;;;12.70;7.37;;;22.80;99.90;;;;;;5084526;28;20261;-76
2023/07/31 04:28:00;;;;;;;7.33;6.73;;;22.80;99.90;;;;;;5068400;28;20181;-76
2023/07/31 04:30:26;;;;;;;8.63;7.73;;;22.80;99.90;;;;;;5063233;28;20458;-83
2023/07/31 04:32:52;;;;;;;9.07;7.47;;;22.90;99.90;;;;;;5065314;28;20492;-82
2023/07/31 04:35:18;;;;;;;7.17;6.53;;;22.90;99.90;;;;;;5064521;28;20216;-76
2023/07/31 04:37:46;;;;;;;7.63;6.83;;;22.90;99.90;;;;;;5063447;28;20414;-82
2023/07/31 04:40:12;;;;;;;7.40;6.53;;;23.00;99.90;;;;;;5064327;28;20740;-76
2023/07/31 04:42:37;;;;;;;7.43;6.67;;;23.00;99.90;;;;;;5063166;28;20413;-81
2023/07/31 04:45:03;;;;;;;7.33;6.53;;;23.00;99.90;;;;;;5062902;28;20778;-81
2023/07/31 04:47:29;;;;;;;28.40;21.70;;;23.00;99.90;;;;;;5066649;28;20184;-81
2023/07/31 04:49:54;;;;;;;6.63;5.93;;;23.00;99.90;;;;;;5068039;28;20433;-77
2023/07/31 04:52:20;;;;;;;19.30;17.00;;;23.10;99.90;;;;;;5068883;28;20186;-77
2023/07/31 04:54:46;;;;;;;6.87;6.20;;;23.10;99.90;;;;;;5067799;28;20189;-76
2023/07/31 04:57:12;;;;;;;6.70;6.10;;;23.10;99.90;;;;;;5067517;28;20226;-82
2023/07/31 04:59:38;;;;;;;6.37;5.77;;;23.10;99.90;;;;;;5068068;28;20576;-76
2023/07/31 05:02:04;;;;;;;7.17;5.57;;;23.10;99.90;;;;;;5067038;28;20177;-77
2023/07/31 05:04:30;;;;;;;5.80;5.20;;;23.20;99.90;;;;;;5067822;28;20476;-82
2023/07/31 05:06:56;;;;;;;6.50;5.90;;;23.20;99.90;;;;;;5068635;28;20918;-77
2023/07/31 05:09:22;;;;;;;6.53;5.90;;;23.20;99.90;;;;;;5068320;28;20461;-77
2023/07/31 05:11:47;;;;;;;6.07;5.47;;;23.30;99.90;;;;;;5066918;28;20559;-82
2023/07/31 05:14:13;;;;;;;5.50;5.00;;;23.30;99.90;;;;;;5065959;28;20816;-84
2023/07/31 05:16:39;;;;;;;98.47;62.77;;;23.30;99.90;;;;;;5067301;28;20829;-76
2023/07/31 05:19:05;;;;;;;21.20;16.93;;;23.40;99.90;;;;;;5067965;28;20427;-86
2023/07/31 05:21:31;;;;;;;8.17;6.07;;;23.40;99.90;;;;;;5065359;28;20179;-76
2023/07/31 05:23:57;;;;;;;6.60;5.67;;;23.40;99.90;;;;;;5063705;28;20275;-86
2023/07/31 05:26:23;;;;;;;6.07;5.47;;;23.40;99.90;;;;;;5066821;28;20179;-76
2023/07/31 05:28:49;;;;;;;5.33;4.77;;;23.40;99.90;;;;;;5067737;28;20949;-76
2023/07/31 05:31:15;;;;;;;5.50;4.73;;;23.50;99.90;;;;;;5067515;28;20427;-76
2023/07/31 05:33:41;;;;;;;5.43;4.93;;;23.50;99.90;;;;;;5067420;28;21038;-87
2023/07/31 05:36:08;;;;;;;6.87;4.63;;;23.60;99.90;;;;;;5066445;28;20541;-76
2023/07/31 05:38:34;;;;;;;5.13;4.67;;;23.60;99.90;;;;;;5066320;28;21170;-75
2023/07/31 05:40:59;;;;;;;5.57;5.07;;;23.60;99.90;;;;;;5077245;28;20516;-86
2023/07/31 05:43:25;;;;;;;4.97;4.47;;;23.60;99.90;;;;;;5087975;28;20176;-76
2023/07/31 05:45:51;;;;;;;6.40;4.90;;;23.60;99.90;;;;;;5083637;28;20250;-76
2023/07/31 05:48:17;;;;;;;4.60;4.20;;;23.70;99.90;;;;;;5072565;28;20167;-76
2023/07/31 05:50:44;;;;;;;5.73;4.27;;;23.70;99.90;;;;;;5082015;28;20554;-86
2023/07/31 05:53:10;;;;;;;5.33;4.83;;;23.70;99.90;;;;;;5065284;28;20187;-86
2023/07/31 05:55:36;;;;;;;5.63;4.27;;;23.70;99.90;;;;;;5084213;28;20452;-87
2023/07/31 05:58:02;;;;;;;7.60;4.50;;;23.80;99.90;;;;;;5086812;28;20502;-85
2023/07/31 06:00:28;;;;;;;5.00;4.30;;;23.80;99.90;;;;;;5087257;28;20257;-75
2023/07/31 06:02:53;;;;;;;4.60;4.20;;;23.80;99.90;;;;;;5085475;28;20480;-85
2023/07/31 06:05:19;;;;;;;5.03;4.30;;;23.80;99.90;;;;;;5086281;28;20487;-75
2023/07/31 06:07:45;;;;;;;4.50;4.10;;;23.90;99.90;;;;;;5082921;28;20179;-75
2023/07/31 06:10:11;;;;;;;4.40;3.73;;;23.80;99.90;;;;;;5085919;28;20194;-85
2023/07/31 06:12:37;;;;;;;5.43;4.07;;;23.90;99.90;;;;;;5083725;28;20416;-75
2023/07/31 06:15:03;;;;;;;5.00;3.70;;;23.90;99.90;;;;;;5078083;28;20476;-75
2023/07/31 06:17:29;;;;;;;4.77;4.37;;;23.90;99.90;;;;;;5078249;28;20348;-75
2023/07/31 06:19:56;;;;;;;9.70;4.10;;;24.00;99.90;;;;;;5066732;28;20465;-75
2023/07/31 06:22:22;;;;;;;5.30;3.83;;;24.00;99.90;;;;;;5073031;28;20442;-75
2023/07/31 06:24:48;;;;;;;3.70;3.40;;;24.10;99.90;;;;;;5064020;28;20706;-75
2023/07/31 06:27:14;;;;;;;3.70;3.40;;;24.10;99.90;;;;;;5065390;28;20709;-86
2023/07/31 06:29:41;;;;;;;4.00;3.20;;;24.10;99.90;;;;;;5064318;28;20488;-75
2023/07/31 06:32:07;;;;;;;3.30;3.00;;;24.20;99.90;;;;;;5067017;28;20196;-76
2023/07/31 06:34:32;;;;;;;3.43;2.93;;;24.20;99.90;;;;;;5062733;28;20897;-86
2023/07/31 06:36:58;;;;;;;3.50;3.20;;;24.20;99.90;;;;;;5077786;28;20639;-75
2023/07/31 06:39:24;;;;;;;4.87;3.50;;;24.20;99.90;;;;;;5084974;28;20223;-87
2023/07/31 06:41:50;;;;;;;3.37;3.07;;;24.20;99.90;;;;;;5083455;28;20496;-76
2023/07/31 06:44:16;;;;;;;4.10;3.70;;;24.20;99.90;;;;;;5082175;28;20786;-74
2023/07/31 06:46:42;;;;;;;3.50;3.20;;;24.30;99.90;;;;;;5083343;28;20423;-75
2023/07/31 06:49:08;;;;;;;4.23;2.87;;;24.30;99.90;;;;;;5081228;28;20179;-84
2023/07/31 06:51:35;;;;;;;3.27;3.00;;;24.30;99.90;;;;;;5071193;28;20440;-84
2023/07/31 06:54:02;;;;;;;7.53;4.70;;;24.30;99.90;;;;;;5075278;28;20232;-75
2023/07/31 06:56:28;;;;;;;12.70;4.23;;;24.30;99.90;;;;;;5081648;28;20776;-86
2023/07/31 06:58:55;;;;;;;3.60;3.27;;;24.40;99.90;;;;;;5078443;28;20451;-74
2023/07/31 07:01:21;;;;;;;4.40;3.27;;;24.40;99.90;;;;;;5064506;28;20166;-75
2023/07/31 07:03:47;;;;;;;2.73;2.50;;;24.40;99.90;;;;;;5064089;28;20821;-85
2023/07/31 07:06:13;;;;;;;3.50;3.00;;;24.40;99.90;;;;;;5061485;28;20307;-75
2023/07/31 07:08:39;;;;;;;3.10;2.90;;;24.50;99.90;;;;;;5060935;28;20187;-86
2023/07/31 07:11:05;;;;;;;4.13;3.00;;;24.50;99.90;;;;;;5060471;28;20429;-76
2023/07/31 07:13:31;;;;;;;2.93;2.60;;;24.60;99.90;;;;;;5059855;28;20842;-85
2023/07/31 07:15:56;;;;;;;3.10;2.80;;;24.60;99.90;;;;;;5066051;28;20476;-75
2023/07/31 07:18:22;;;;;;;3.00;2.80;;;24.60;99.90;;;;;;5081146;28;20202;-86
2023/07/31 07:20:51;;;;;;;5.73;2.90;;;24.70;99.90;;;;;;5082617;28;20197;-85
2023/07/31 07:23:17;;;;;;;3.47;2.33;;;24.70;99.90;;;;;;5082308;28;20209;-76
2023/07/31 07:25:43;;;;;;;4.83;3.00;;;24.70;99.90;;;;;;5079896;28;20472;-85
2023/07/31 07:28:10;;;;;;;6.63;2.60;;;24.70;99.90;;;;;;5080437;28;20396;-88
2023/07/31 07:30:36;;;;;;;4.73;2.43;;;24.70;99.90;;;;;;5080520;28;20444;-88
2023/07/31 07:33:02;;;;;;;2.57;2.37;;;24.70;99.90;;;;;;5083163;28;20620;-77
2023/07/31 07:35:29;;;;;;;5.53;2.80;;;24.70;99.90;;;;;;5081620;28;20636;-77
2023/07/31 07:37:54;;;;;;;5.10;2.77;;;24.80;99.90;;;;;;5062628;28;20527;-86
2023/07/31 07:40:21;;;;;;;3.67;2.60;;;24.80;99.90;;;;;;5071475;28;20589;-86
2023/07/31 07:42:47;;;;;;;3.07;2.70;;;24.90;99.90;;;;;;5080261;28;20824;-76
2023/07/31 07:45:13;;;;;;;3.50;2.20;;;24.90;99.90;;;;;;5079929;28;20473;-76
2023/07/31 07:47:41;;;;;;;7.03;2.43;;;24.90;99.90;;;;;;5082885;28;20420;-86
2023/07/31 07:50:07;;;;;;;2.97;2.30;;;24.90;99.90;;;;;;5079870;28;20210;-76
2023/07/31 07:52:33;;;;;;;5.10;2.40;;;24.90;99.90;;;;;;5081585;28;20943;-77
2023/07/31 07:55:00;;;;;;;4.50;2.30;;;25.00;99.90;;;;;;5080655;28;20453;-87
2023/07/31 07:57:26;;;;;;;2.50;2.30;;;25.00;99.90;;;;;;5080105;28;20298;-86
2023/07/31 07:59:53;;;;;;;2.83;2.63;;;25.10;99.90;;;;;;5077593;28;20571;-86
2023/07/31 08:02:19;;;;;;;5.53;3.60;;;25.10;99.90;;;;;;5080683;28;20408;-77
2023/07/31 08:04:44;;;;;;;7.37;3.07;;;25.10;99.90;;;;;;5066597;28;20515;-86
2023/07/31 08:07:13;;;;;;;7.40;4.27;;;25.10;99.90;;;;;;5066664;28;20176;-77
2023/07/31 08:09:39;;;;;;;7.57;2.67;;;25.10;99.90;;;;;;5060992;28;20731;-77
2023/07/31 08:12:06;;;;;;;6.80;2.80;;;25.20;99.90;;;;;;5063921;28;20405;-77
2023/07/31 08:14:33;;;;;;;3.33;2.73;;;25.20;99.90;;;;;;5062285;28;20488;-77
2023/07/31 08:16:59;;;;;;;4.47;2.80;;;25.20;99.90;;;;;;5061810;28;20418;-77
2023/07/31 08:19:25;;;;;;;2.90;2.60;;;25.20;99.90;;;;;;5064150;28;20908;-76
2023/07/31 08:21:51;;;;;;;2.93;2.63;;;25.20;99.90;;;;;;5067235;28;20479;-76
2023/07/31 08:24:17;;;;;;;3.80;2.87;;;25.20;99.90;;;;;;5065340;28;20359;-86
2023/07/31 08:26:43;;;;;;;4.40;3.00;;;25.20;99.90;;;;;;5066595;28;20412;-78
2023/07/31 08:29:09;;;;;;;48.40;40.63;;;25.30;99.90;;;;;;5072366;28;20475;-86
2023/07/31 08:31:35;;;;;;;4.87;3.00;;;25.50;99.90;;;;;;5067477;28;20456;-76
2023/07/31 08:34:01;;;;;;;3.33;2.90;;;25.40;99.90;;;;;;5068544;28;20624;-85
2023/07/31 08:36:27;;;;;;;2.90;2.30;;;25.40;99.90;;;;;;5074931;28;20588;-76
2023/07/31 08:38:53;;;;;;;3.10;2.40;;;25.30;99.90;;;;;;5065267;28;20430;-76
2023/07/31 08:41:19;;;;;;;3.20;2.50;;;25.30;99.90;;;;;;5065039;28;20649;-76
2023/07/31 08:43:47;;;;;;;3.30;3.00;;;25.30;99.90;;;;;;5067088;28;20184;-76
2023/07/31 08:46:14;;;;;;;3.63;2.50;;;25.30;99.90;;;;;;5079234;28;20468;-85
2023/07/31 08:48:45;;;;;;;3.53;2.90;;;25.40;99.90;;;;;;5079333;28;20792;-85
2023/07/31 08:51:11;;;;;;;5.03;2.40;;;25.40;99.90;;;;;;5079025;28;20890;-77
2023/07/31 08:53:37;;;;;;;3.80;2.43;;;25.40;99.90;;;;;;5079854;28;20431;-84
2023/07/31 08:56:05;;;;;;;2.80;2.03;;;25.40;99.90;;;;;;5077806;28;20468;-85
2023/07/31 08:58:32;;;;;;;1.97;1.83;;;25.40;99.90;;;;;;5076759;28;20419;-78
2023/07/31 09:01:00;;;;;;;3.27;2.17;;;25.50;99.90;;;;;;5073229;28;20468;-77
2023/07/31 09:03:26;;;;;;;2.90;1.80;;;25.50;99.90;;;;;;5085034;28;20718;-77
2023/07/31 09:05:55;;;;;;;3.60;2.03;;;25.50;99.90;;;;;;5080706;28;20467;-85
2023/07/31 09:08:21;;;;;;;3.20;1.70;;;25.50;99.90;;;;;;5075497;28;20503;-77
2023/07/31 09:10:49;;;;;;;2.90;1.57;;;25.50;99.90;;;;;;5080374;28;20484;-83
2023/07/31 09:13:16;;;;;;;3.50;1.80;;;25.60;99.90;;;;;;5087039;28;20457;-77
2023/07/31 09:15:44;;;;;;;2.73;1.90;;;25.60;99.90;;;;;;5072216;28;20471;-77
2023/07/31 09:18:10;;;;;;;5.17;2.00;;;25.60;99.90;;;;;;5073378;28;20509;-81
2023/07/31 09:20:37;;;;;;;4.10;1.80;;;25.60;99.90;;;;;;5072054;28;20911;-82
2023/07/31 09:23:10;;;;;;;2.90;1.87;;;25.70;99.90;;;;;;5080779;28;20452;-82
2023/07/31 09:25:37;;;;;;;3.03;2.73;;;25.70;99.90;;;;;;5077984;28;21027;-82
2023/07/31 09:28:05;;;;;;;12.37;11.20;;;25.80;99.90;;;;;;5075673;28;20440;-81
2023/07/31 09:30:43;;;;;;;5.00;2.33;;;25.90;99.90;;;;;;5075778;28;20513;-75
2023/07/31 09:33:09;;;;;;;3.07;2.13;;;25.90;99.90;;;;;;5078950;28;21074;-80
2023/07/31 09:35:37;;;;;;;3.60;2.00;;;25.90;99.90;;;;;;5075094;28;20436;-80
2023/07/31 09:38:09;;;;;;;5.77;2.23;;;25.90;99.90;;;;;;5076628;28;20590;-76
2023/07/31 09:40:45;;;;;;;4.40;2.70;;;25.80;99.90;;;;;;5077032;28;20524;-76
2023/07/31 09:43:13;;;;;;;2.63;2.40;;;25.80;99.90;;;;;;5084952;28;20416;-80
2023/07/31 09:45:40;;;;;;;3.50;2.20;;;25.90;99.90;;;;;;5083274;28;20521;-80
2023/07/31 09:48:16;;;;;;;2.97;2.67;;;26.00;99.90;;;;;;5084012;28;20857;-76
2023/07/31 09:50:44;;;;;;;3.10;2.80;;;26.00;99.90;;;;;;5070280;28;21008;-76
2023/07/31 09:53:10;;;;;;;4.30;2.40;;;26.00;99.90;;;;;;5067765;28;20902;-81
2023/07/31 09:55:37;;;;;;;4.73;2.97;;;26.00;99.90;;;;;;5065269;28;20532;-76
2023/07/31 09:58:05;;;;;;;3.20;2.57;;;26.10;99.90;;;;;;5062527;28;20204;-80
2023/07/31 10:00:32;;;;;;;5.90;2.60;;;26.30;99.90;;;;;;5062502;28;20418;-76
2023/07/31 10:03:04;;;;;;;2.53;2.33;;;26.40;99.90;;;;;;5078013;28;20868;-81
2023/07/31 10:05:45;;;;;;;5.70;2.40;;;26.40;99.90;;;;;;5071357;28;20482;-76
2023/07/31 10:08:14;;;;;;;8.73;2.50;;;26.60;99.90;;;;;;5072229;28;20431;-76
2023/07/31 10:10:44;;;;;;;2.60;2.40;;;26.60;99.90;;;;;;5077086;28;20557;-76
2023/07/31 10:13:13;;;;;;;4.03;2.33;;;26.70;99.90;;;;;;5073581;28;21060;-81
2023/07/31 10:15:41;;;;;;;2.40;2.07;;;26.70;99.90;;;;;;5061212;28;20461;-80
2023/07/31 10:18:07;;;;;;;3.77;2.03;;;26.70;99.90;;;;;;5063495;28;20424;-76
2023/07/31 10:20:33;;;;;;;5.83;3.20;;;26.70;99.90;;;;;;5067137;28;20554;-78
2023/07/31 10:23:00;;;;;;;25.60;18.03;;;26.80;99.90;;;;;;5069235;28;21117;-76
2023/07/31 10:25:29;;;;;;;3.40;2.40;;;26.80;99.90;;;;;;5063543;28;20470;-75
2023/07/31 10:27:55;;;;;;;3.93;2.20;;;26.90;99.90;;;;;;5065437;28;20406;-75
2023/07/31 10:30:25;;;;;;;4.30;2.33;;;26.90;99.90;;;;;;5074384;28;20615;-81
2023/07/31 10:32:52;;;;;;;2.60;2.03;;;26.90;99.90;;;;;;5081213;28;20815;-75
2023/07/31 10:35:19;;;;;;;1.90;1.70;;;26.90;99.90;;;;;;5084569;28;20981;-76
2023/07/31 10:37:45;;;;;;;4.07;1.80;;;26.90;99.90;;;;;;5080450;28;20460;-79
2023/07/31 10:40:20;;;;;;;3.63;2.40;;;27.00;99.90;;;;;;5081868;28;20457;-80
2023/07/31 10:42:50;;;;;;;3.00;1.83;;;27.00;99.90;;;;;;5083735;28;20424;-81
2023/07/31 10:45:32;;;;;;;3.07;1.90;;;27.10;99.90;;;;;;5083473;28;20473;-81
2023/07/31 10:48:12;;;;;;;3.00;1.80;;;27.10;99.90;;;;;;5083475;28;20437;-80
2023/07/31 10:50:46;;;;;;;1.90;1.50;;;27.10;99.90;;;;;;5084675;28;20432;-76
2023/07/31 10:53:23;;;;;;;3.57;1.67;;;27.10;99.90;;;;;;5083568;28;20576;-81
2023/07/31 10:55:51;;;;;;;3.10;2.10;;;27.10;99.90;;;;;;5081980;28;20444;-81
2023/07/31 10:58:19;;;;;;;1.97;1.77;;;27.10;99.90;;;;;;5067171;28;20414;-76
2023/07/31 11:00:45;;;;;;;4.30;2.40;;;27.10;99.90;;;;;;5065202;28;20433;-81
2023/07/31 11:03:14;;;;;;;2.80;2.13;;;27.10;99.90;;;;;;5063674;28;20497;-76
2023/07/31 11:05:45;;;;;;;3.90;2.13;;;27.20;99.60;;;;;;5064816;28;20215;-79
2023/07/31 11:08:24;;;;;;;2.30;2.03;;;27.20;99.90;;;;;;5070676;28;20429;-80
2023/07/31 11:11:03;;;;;;;3.63;1.67;;;27.20;99.90;;;;;;5067972;28;20499;-75
2023/07/31 11:13:31;;;;;;;2.50;1.87;;;27.40;97.40;;;;;;5068262;28;20437;-84
2023/07/31 11:15:58;;;;;;;5.50;2.20;;;27.20;99.90;;;;;;5079374;28;20560;-82
2023/07/31 11:18:25;;;;;;;2.63;2.17;;;27.40;98.50;;;;;;5079227;28;20487;-85
2023/07/31 11:20:51;;;;;;;3.70;1.90;;;27.50;97.50;;;;;;5065323;28;20587;-75
2023/07/31 11:23:18;;;;;;;3.87;2.50;;;27.50;97.70;;;;;;5062223;28;20939;-72
2023/07/31 11:25:44;;;;;;;5.83;2.00;;;27.60;95.80;;;;;;5063490;28;20219;-74
2023/07/31 11:28:14;;;;;;;2.90;1.73;;;27.60;94.60;;;;;;5073345;28;20413;-73
2023/07/31 11:30:41;;;;;;;3.97;1.80;;;27.60;94.10;;;;;;5080058;28;20457;-72
2023/07/31 11:33:08;;;;;;;5.87;3.93;;;27.60;95.20;;;;;;5073054;28;20499;-74
2023/07/31 11:35:36;;;;;;;24.93;22.50;;;27.60;95.80;;;;;;5062650;28;20434;-74
2023/07/31 11:38:02;;;;;;;7.13;4.30;;;27.70;95.40;;;;;;5073080;28;20531;-74
2023/07/31 11:40:31;;;;;;;3.20;2.20;;;27.80;97.50;;;;;;5081244;28;21030;-74
2023/07/31 11:43:04;;;;;;;4.70;2.73;;;27.70;98.90;;;;;;5083833;28;20407;-90
2023/07/31 11:45:30;;;;;;;4.17;2.40;;;27.80;95.10;;;;;;5082098;28;21156;-76
2023/07/31 11:47:56;;;;;;;3.40;2.23;;;27.70;99.10;;;;;;5081306;28;21001;-84
2023/07/31 11:50:26;;;;;;;2.90;2.10;;;27.60;97.00;;;;;;5079799;28;20450;-74
2023/07/31 11:52:59;;;;;;;3.37;2.20;;;27.60;94.80;;;;;;5074786;28;20905;-75
2023/07/31 11:55:25;;;;;;;2.60;2.00;;;27.60;98.60;;;;;;5075449;28;21025;-82
2023/07/31 11:57:53;;;;;;;2.13;1.50;;;27.60;99.90;;;;;;5080594;28;20492;-83
2023/07/31 12:00:19;;;;;;;3.90;2.13;;;27.50;99.90;;;;;;5079566;28;20465;-80
2023/07/31 12:02:45;;;;;;;3.17;2.10;;;27.50;99.90;;;;;;5081265;28;20773;-74
2023/07/31 12:05:14;;;;;;;4.00;2.30;;;27.40;99.90;;;;;;5079435;28;20489;-84
2023/07/31 12:07:49;;;;;;;3.57;2.10;;;27.50;99.90;;;;;;5082147;28;20400;-85
2023/07/31 12:10:29;;;;;;;2.93;1.90;;;27.60;97.20;;;;;;5074562;28;20456;-74
2023/07/31 12:13:05;;;;;;;2.13;1.87;;;27.70;98.90;;;;;;5066057;28;20441;-86
2023/07/31 12:15:39;;;;;;;3.70;2.30;;;27.70;97.90;;;;;;5071521;28;20585;-84
2023/07/31 12:18:18;;;;;;;3.83;2.40;;;27.70;98.70;;;;;;5070461;28;20502;-87
2023/07/31 12:20:55;;;;;;;5.27;2.50;;;27.60;99.90;;;;;;5068905;28;20516;-76
2023/07/31 12:23:30;;;;;;;2.57;2.37;;;27.50;99.90;;;;;;5072198;28;20440;-74
2023/07/31 12:26:15;;;;;;;2.80;1.83;;;27.60;97.60;;;;;;5080857;28;20483;-76
2023/07/31 12:28:42;;;;;;;2.93;2.03;;;27.60;99.90;;;;;;5079968;28;20412;-74
2023/07/31 12:31:29;;;;;;;4.53;2.77;;;27.60;99.70;;;;;;5062387;28;20458;-73
2023/07/31 12:33:55;;;;;;;2.33;2.10;;;27.60;99.90;;;;;;5068509;28;20440;-86
2023/07/31 12:36:23;;;;;;;3.93;2.30;;;27.50;99.90;;;;;;5066097;28;20432;-83
2023/07/31 12:38:52;;;;;;;5.30;2.30;;;27.60;99.90;;;;;;5066126;28;20443;-81
2023/07/31 12:41:18;;;;;;;2.97;2.10;;;27.50;99.90;;;;;;5063677;28;20431;-75
2023/07/31 12:43:45;;;;;;;3.77;2.00;;;27.60;99.90;;;;;;5068239;28;21064;-78
2023/07/31 12:46:11;;;;;;;2.90;2.70;;;27.60;99.90;;;;;;5061137;28;20785;-83